Terminal Aerodrome Forecast
Issued by NWS Wilmington, NC

Home | Current Version | Previous Version | Text Only | Print | Product List | Glossary On
Versions: 1 2 3 4 5 6 7 8 9 10 11 12
000
FTUS42 KILM 251122
TAFILM
TAF
KILM 251122Z 2512/2612 24006KT P6SM SCT025 SCT060
     FM251700 16006KT P6SM VCSH SCT030 BKN060
     FM252000 18010KT P6SM SCT035 SCT250
     FM260000 22003KT P6SM SCT250=

USA.gov is the U.S. government's official web portal to all federal, state and local government web resources and services.